createdAt,value
2019-03-22T00:00:12.693Z,102721.70
2019-03-22T00:02:41.479Z,102721.83
2019-03-22T00:05:10.269Z,102724.22
2019-03-22T00:07:39.057Z,102726.23
2019-03-22T00:10:07.845Z,102731.95
2019-03-22T00:12:36.634Z,102730.36
2019-03-22T00:15:08.702Z,102724.87
2019-03-22T00:17:37.486Z,102716.42
2019-03-22T00:20:07.604Z,102719.98
2019-03-22T00:22:36.292Z,102722.51
2019-03-22T00:25:06.512Z,102723.44
2019-03-22T00:27:35.301Z,102724.64
2019-03-22T00:30:08.391Z,102731.82
2019-03-22T00:32:37.177Z,102723.48
2019-03-22T00:35:07.399Z,102720.28
2019-03-22T00:37:36.188Z,102722.81
2019-03-22T00:40:09.382Z,102729.09
2019-03-22T00:42:38.166Z,102724.17
2019-03-22T00:45:08.389Z,102729.84
2019-03-22T00:47:37.074Z,102735.80
2019-03-22T00:50:07.402Z,102736.13
2019-03-22T00:52:36.084Z,102731.95
2019-03-22T00:55:06.408Z,102732.81
2019-03-22T00:57:35.094Z,102727.78
2019-03-22T01:00:12.537Z,102727.03
2019-03-22T01:02:41.478Z,102722.53
2019-03-22T01:05:10.902Z,102713.55
2019-03-22T01:07:39.591Z,102710.31
2019-03-22T01:10:13.054Z,102708.59
2019-03-22T01:12:41.748Z,102707.75
2019-03-22T01:15:12.845Z,102711.92
2019-03-22T01:17:42.294Z,102709.20
2019-03-22T01:20:12.412Z,102705.88
2019-03-22T01:22:41.509Z,102709.44
2019-03-22T01:25:10.903Z,102711.84
2019-03-22T01:27:41.046Z,102710.88
2019-03-22T01:30:18.658Z,102705.02
2019-03-22T01:32:47.313Z,102705.66
2019-03-22T01:35:15.907Z,102704.62
2019-03-22T01:37:44.602Z,102701.26
2019-03-22T01:40:17.573Z,102701.05
2019-03-22T01:42:46.354Z,102700.20
2019-03-22T01:45:16.167Z,102698.28
2019-03-22T01:47:44.853Z,102694.39
2019-03-22T01:50:18.492Z,102696.36
2019-03-22T01:52:47.242Z,102695.21
2019-03-22T01:55:15.826Z,102689.95
2019-03-22T01:57:53.123Z,102689.73
2019-03-22T02:00:16.272Z,102677.80
2019-03-22T02:02:45.160Z,102681.64
2019-03-22T02:05:13.847Z,102678.70
2019-03-22T02:07:42.838Z,102684.56
2019-03-22T02:10:12.688Z,102677.87
2019-03-22T02:12:41.445Z,102666.61
2019-03-22T02:15:15.640Z,102675.20
2019-03-22T02:17:44.648Z,102678.66
2019-03-22T02:20:15.176Z,102673.50
2019-03-22T02:22:43.968Z,102673.77
2019-03-22T02:25:13.170Z,102670.47
2019-03-22T02:27:43.613Z,102672.75
2019-03-22T02:30:14.728Z,102676.52
2019-03-22T02:32:43.412Z,102679.81
2019-03-22T02:35:27.408Z,102683.31
2019-03-22T02:37:42.634Z,102671.45
2019-03-22T02:40:12.671Z,102684.92
2019-03-22T02:42:41.472Z,102692.69
2019-03-22T02:45:12.073Z,102690.20
2019-03-22T02:47:40.765Z,102684.50
2019-03-22T02:50:18.690Z,102680.77
2019-03-22T02:52:44.435Z,102688.61
2019-03-22T02:55:14.622Z,102685.88
2019-03-22T02:57:43.260Z,102682.07
2019-03-22T03:00:16.292Z,102686.47
2019-03-22T03:02:44.962Z,102699.69
2019-03-22T03:05:14.274Z,102692.24
2019-03-22T03:07:42.958Z,102690.77
2019-03-22T03:10:16.327Z,102686.51
2019-03-22T03:12:45.430Z,102691.92
2019-03-22T03:15:18.195Z,102691.86
2019-03-22T03:17:47.006Z,102699.15
2019-03-22T03:20:17.767Z,102718.96
2019-03-22T03:22:46.587Z,102722.42
2019-03-22T03:25:16.558Z,102718.50
2019-03-22T03:27:45.348Z,102725.33
2019-03-22T03:30:20.863Z,102722.77
2019-03-22T03:32:49.571Z,102726.66
2019-03-22T03:35:18.739Z,102726.44
2019-03-22T03:37:47.759Z,102735.85
2019-03-22T03:40:16.872Z,102735.08
2019-03-22T03:42:45.654Z,102747.25
2019-03-22T03:45:37.160Z,102738.73
2019-03-22T03:48:08.820Z,102742.03
2019-03-22T03:50:37.447Z,102745.08
2019-03-22T03:53:06.783Z,102743.25
2019-03-22T03:55:35.500Z,102745.69
2019-03-22T03:58:04.822Z,102740.27
2019-03-22T04:00:33.674Z,102741.58
2019-03-22T04:03:02.359Z,102743.54
2019-03-22T04:05:31.148Z,102743.85
2019-03-22T04:07:59.936Z,102748.41
2019-03-22T04:10:28.612Z,102749.27
2019-03-22T04:12:57.309Z,102751.23
2019-03-22T04:15:26.097Z,102748.64
2019-03-22T04:17:54.780Z,102744.89
2019-03-22T04:20:23.569Z,102741.15
2019-03-22T04:22:52.358Z,102746.38
2019-03-22T04:25:21.060Z,102748.27
2019-03-22T04:27:49.934Z,102757.36
2019-03-22T04:30:18.600Z,102754.36
2019-03-22T04:32:47.205Z,102753.58
2019-03-22T04:35:15.995Z,102758.13
2019-03-22T04:37:44.584Z,102760.70
2019-03-22T04:40:25.249Z,102762.61
2019-03-22T04:42:54.036Z,102758.41
2019-03-22T04:45:23.844Z,102755.00
2019-03-22T04:47:58.680Z,102753.38
2019-03-22T04:50:28.436Z,102750.85
2019-03-22T04:52:57.539Z,102744.83
2019-03-22T04:55:26.264Z,102749.70
2019-03-22T04:57:55.770Z,102765.63
2019-03-22T05:00:24.821Z,102765.94
2019-03-22T05:02:54.301Z,102766.78
2019-03-22T05:05:23.465Z,102763.52
2019-03-22T05:07:52.765Z,102755.17
2019-03-22T05:10:21.867Z,102754.70
2019-03-22T05:12:51.076Z,102757.06
2019-03-22T05:15:20.460Z,102761.78
2019-03-22T05:17:49.760Z,102766.63
2019-03-22T05:20:19.062Z,102774.55
2019-03-22T05:22:47.893Z,102773.34
2019-03-22T05:25:17.151Z,102776.91
2019-03-22T05:27:46.151Z,102783.17
2019-03-22T05:30:46.883Z,102789.48
2019-03-22T05:33:15.567Z,102788.80
2019-03-22T05:35:44.353Z,102803.63
2019-03-22T05:38:13.038Z,102801.20
2019-03-22T05:40:43.366Z,102792.31
2019-03-22T05:43:12.050Z,102789.89
2019-03-22T05:45:40.735Z,102788.00
2019-03-22T05:48:09.421Z,102794.17
2019-03-22T05:50:38.013Z,102788.16
2019-03-22T05:53:06.690Z,102791.16
2019-03-22T05:55:35.582Z,102799.18
2019-03-22T05:58:04.267Z,102801.20
2019-03-22T06:00:32.953Z,102794.80
2019-03-22T06:03:01.642Z,102793.88
2019-03-22T06:05:30.424Z,102793.73
2019-03-22T06:07:59.111Z,102795.77
2019-03-22T06:10:27.799Z,102800.23
2019-03-22T06:12:56.483Z,102799.50
2019-03-22T06:15:25.271Z,102796.63
2019-03-22T06:17:53.928Z,102815.23
2019-03-22T06:20:22.540Z,102816.28
2019-03-22T06:22:51.203Z,102814.91
2019-03-22T06:25:19.810Z,102805.87
2019-03-22T06:27:48.495Z,102810.36
2019-03-22T06:30:17.181Z,102815.66
2019-03-22T06:32:45.765Z,102810.06
2019-03-22T06:35:14.462Z,102819.31
2019-03-22T06:37:43.136Z,102822.05
2019-03-22T06:40:12.335Z,102819.83
2019-03-22T06:42:41.022Z,102822.41
2019-03-22T06:45:10.322Z,102823.95
2019-03-22T06:47:38.983Z,102826.05
2019-03-22T06:50:08.103Z,102822.10
2019-03-22T06:52:36.687Z,102824.59
2019-03-22T06:55:08.647Z,102827.86
2019-03-22T06:57:37.331Z,102834.91
2019-03-22T07:00:11.567Z,102841.44
2019-03-22T07:02:40.204Z,102847.84
2019-03-22T07:05:08.920Z,102855.75
2019-03-22T07:07:37.609Z,102853.20
2019-03-22T07:10:07.007Z,102862.09
2019-03-22T07:12:35.694Z,102864.66
2019-03-22T07:15:06.114Z,102852.42
2019-03-22T07:17:34.806Z,102855.59
2019-03-22T07:20:03.911Z,102859.38
2019-03-22T07:22:32.690Z,102852.63
2019-03-22T07:25:01.377Z,102855.41
2019-03-22T07:27:30.163Z,102848.17
2019-03-22T07:29:58.746Z,102852.80
2019-03-22T07:32:27.426Z,102854.84
2019-03-22T07:34:56.121Z,102855.59
2019-03-22T07:37:24.815Z,102854.41
2019-03-22T07:39:53.359Z,102849.32
2019-03-22T07:42:22.072Z,102846.59
2019-03-22T07:44:50.758Z,102854.89
2019-03-22T07:47:19.547Z,102858.34
2019-03-22T07:49:48.234Z,102861.38
2019-03-22T07:52:16.918Z,102859.89
2019-03-22T07:54:45.504Z,102858.47
2019-03-22T07:57:14.210Z,102854.71
2019-03-22T07:59:42.917Z,102851.44
2019-03-22T08:02:11.723Z,102845.55
2019-03-22T08:04:40.328Z,102850.25
2019-03-22T08:07:09.915Z,102844.67
2019-03-22T08:09:38.780Z,102843.49
2019-03-22T08:12:07.550Z,102850.98
2019-03-22T08:14:36.216Z,102849.05
2019-03-22T08:17:04.881Z,102846.89
2019-03-22T08:19:33.589Z,102845.29
2019-03-22T08:22:03.413Z,102837.31
2019-03-22T08:24:32.002Z,102845.38
2019-03-22T08:27:00.810Z,102840.69
2019-03-22T08:29:29.467Z,102841.50
2019-03-22T08:31:58.043Z,102838.15
2019-03-22T08:34:26.852Z,102840.02
2019-03-22T08:36:55.695Z,102828.81
2019-03-22T08:39:24.304Z,102833.77
2019-03-22T08:41:52.990Z,102840.73
2019-03-22T08:44:21.780Z,102853.92
2019-03-22T08:46:50.567Z,102843.72
2019-03-22T08:49:19.325Z,102845.99
2019-03-22T08:51:49.696Z,102846.41
2019-03-22T08:54:18.671Z,102843.94
2019-03-22T08:56:47.372Z,102859.18
2019-03-22T08:59:16.028Z,102857.95
2019-03-22T09:01:44.683Z,102852.63
2019-03-22T09:04:13.415Z,102849.31
2019-03-22T09:06:42.237Z,102844.02
2019-03-22T09:09:10.905Z,102851.67
2019-03-22T09:11:39.578Z,102856.13
2019-03-22T09:14:08.260Z,102860.45
2019-03-22T09:16:37.005Z,102862.62
2019-03-22T09:19:05.625Z,102855.20
2019-03-22T09:21:34.226Z,102846.77
2019-03-22T09:24:03.004Z,102849.69
2019-03-22T09:26:31.692Z,102848.36
2019-03-22T09:29:00.378Z,102855.95
2019-03-22T09:31:29.166Z,102849.57
2019-03-22T09:33:57.904Z,102836.93
2019-03-22T09:36:26.557Z,102838.33
2019-03-22T09:38:55.412Z,102835.59
2019-03-22T09:41:24.138Z,102834.00
2019-03-22T09:43:52.934Z,102833.34
2019-03-22T09:46:21.618Z,102829.25
2019-03-22T09:48:50.299Z,102828.20
2019-03-22T09:51:19.067Z,102832.09
2019-03-22T09:53:47.958Z,102830.34
2019-03-22T09:56:16.748Z,102843.41
2019-03-22T09:58:45.431Z,102838.33
2019-03-22T10:01:23.684Z,102842.22
2019-03-22T10:03:45.055Z,102832.74
2019-03-22T10:06:13.746Z,102833.69
2019-03-22T10:08:42.631Z,102833.77
2019-03-22T10:11:11.337Z,102826.70
2019-03-22T10:13:40.162Z,102829.45
2019-03-22T10:16:08.892Z,102823.68
2019-03-22T10:18:37.713Z,102825.34
2019-03-22T10:21:06.467Z,102828.36
2019-03-22T10:23:35.154Z,102833.52
2019-03-22T10:26:03.840Z,102834.83
2019-03-22T10:28:32.658Z,102835.23
2019-03-22T10:31:01.368Z,102833.55
2019-03-22T10:33:30.203Z,102830.44
2019-03-22T10:35:58.917Z,102831.81
2019-03-22T10:38:31.908Z,102827.69
2019-03-22T10:40:58.002Z,102816.31
2019-03-22T10:43:26.686Z,102827.86
2019-03-22T10:45:55.300Z,102823.00
2019-03-22T10:48:23.955Z,102825.56
2019-03-22T10:50:52.640Z,102819.42
2019-03-22T10:53:21.329Z,102824.55
2019-03-22T10:55:50.136Z,102816.58
2019-03-22T10:58:21.354Z,102818.73
2019-03-22T11:00:49.226Z,102817.44
2019-03-22T11:03:18.014Z,102811.11
2019-03-22T11:05:46.801Z,102811.03
2019-03-22T11:08:15.589Z,102811.34
2019-03-22T11:10:44.175Z,102810.46
2019-03-22T11:13:12.962Z,102806.10
2019-03-22T11:15:48.386Z,102804.05
2019-03-22T11:18:12.153Z,102803.23
2019-03-22T11:20:40.861Z,102796.06
2019-03-22T11:23:09.650Z,102792.37
2019-03-22T11:25:38.238Z,102792.84
2019-03-22T11:28:07.020Z,102792.78
2019-03-22T11:30:35.808Z,102783.11
2019-03-22T11:33:04.700Z,102779.44
2019-03-22T11:35:33.486Z,102774.27
2019-03-22T11:38:02.284Z,102765.63
2019-03-22T11:40:30.960Z,102767.30
2019-03-22T11:43:08.241Z,102765.09
2019-03-22T11:45:29.971Z,102761.47
2019-03-22T11:48:00.539Z,102752.79
2019-03-22T11:50:29.595Z,102753.39
2019-03-22T11:52:58.282Z,102746.20
2019-03-22T11:55:26.971Z,102739.16
2019-03-22T11:57:55.630Z,102747.00
2019-03-22T12:00:27.516Z,102739.49
2019-03-22T12:02:56.402Z,102748.19
2019-03-22T12:05:26.222Z,102741.81
2019-03-22T12:07:54.901Z,102737.22
2019-03-22T12:10:23.810Z,102734.66
2019-03-22T12:12:52.796Z,102736.16
2019-03-22T12:15:23.108Z,102732.81
2019-03-22T12:17:51.905Z,102734.75
2019-03-22T12:20:22.427Z,102728.34
2019-03-22T12:22:51.400Z,102728.47
2019-03-22T12:25:24.800Z,102727.63
2019-03-22T12:27:53.602Z,102725.03
2019-03-22T12:30:22.392Z,102716.42
2019-03-22T12:32:51.077Z,102712.76
2019-03-22T12:35:20.171Z,102717.96
2019-03-22T12:37:49.168Z,102708.08
2019-03-22T12:40:22.464Z,102709.64
2019-03-22T12:42:51.261Z,102705.92
2019-03-22T12:45:25.155Z,102713.47
2019-03-22T12:47:54.157Z,102700.62
2019-03-22T12:50:25.430Z,102702.84
2019-03-22T12:52:54.285Z,102697.53
2019-03-22T12:55:22.970Z,102696.16
2019-03-22T12:57:51.759Z,102691.47
2019-03-22T13:00:26.922Z,102692.61
2019-03-22T13:02:55.991Z,102683.98
2019-03-22T13:05:24.782Z,102686.34
2019-03-22T13:07:53.877Z,102692.19
2019-03-22T13:10:25.841Z,102686.11
2019-03-22T13:12:54.526Z,102690.19
2019-03-22T13:15:23.109Z,102685.41
2019-03-22T13:17:51.793Z,102684.14
2019-03-22T13:20:20.584Z,102678.44
2019-03-22T13:22:49.265Z,102679.67
2019-03-22T13:25:21.113Z,102677.75
2019-03-22T13:27:49.301Z,102673.45
2019-03-22T13:30:34.472Z,102674.00
2019-03-22T13:33:03.774Z,102667.52
2019-03-22T13:35:32.560Z,102663.98
2019-03-22T13:38:02.782Z,102664.88
2019-03-22T13:40:31.571Z,102656.28
2019-03-22T13:43:00.357Z,102657.89
2019-03-22T13:45:28.935Z,102649.16
2019-03-22T13:47:57.733Z,102643.58
2019-03-22T13:50:27.982Z,102646.97
2019-03-22T13:52:56.740Z,102641.90
2019-03-22T13:55:26.450Z,102633.87
2019-03-22T13:57:55.206Z,102634.25
2019-03-22T14:00:24.025Z,102633.95
2019-03-22T14:03:02.592Z,102627.61
2019-03-22T14:05:23.136Z,102635.53
2019-03-22T14:07:51.822Z,102630.16
2019-03-22T14:10:31.330Z,102620.79
2019-03-22T14:13:01.402Z,102620.32
2019-03-22T14:15:30.077Z,102613.37
2019-03-22T14:17:59.163Z,102615.00
2019-03-22T14:20:27.949Z,102601.12
2019-03-22T14:22:56.640Z,102599.91
2019-03-22T14:25:26.831Z,102598.23
2019-03-22T14:27:55.543Z,102600.66
2019-03-22T14:30:24.240Z,102598.45
2019-03-22T14:32:52.922Z,102596.39
2019-03-22T14:35:21.702Z,102591.78
2019-03-22T14:37:50.490Z,102582.94
2019-03-22T14:40:19.381Z,102578.47
2019-03-22T14:42:48.068Z,102587.66
2019-03-22T14:45:16.859Z,102587.58
2019-03-22T14:47:45.644Z,102581.80
2019-03-22T14:50:14.431Z,102575.50
2019-03-22T14:52:45.575Z,102574.96
2019-03-22T14:55:14.363Z,102568.52
2019-03-22T14:57:49.187Z,102570.60
2019-03-22T15:00:15.934Z,102573.73
2019-03-22T15:02:44.855Z,102561.61
2019-03-22T15:05:13.613Z,102565.09
2019-03-22T15:07:42.606Z,102560.41
2019-03-22T15:10:13.374Z,102554.22
2019-03-22T15:12:42.129Z,102549.14
2019-03-22T15:15:21.876Z,102543.55
2019-03-22T15:17:55.474Z,102544.97
2019-03-22T15:20:26.049Z,102543.09
2019-03-22T15:23:13.555Z,102539.17
2019-03-22T15:26:00.549Z,102532.65
2019-03-22T15:28:46.588Z,102547.22
2019-03-22T15:31:17.172Z,102548.36
2019-03-22T15:36:35.737Z,102547.49
2019-03-22T15:39:09.132Z,102541.23
2019-03-22T15:41:38.027Z,102534.72
2019-03-22T15:44:06.870Z,102532.34
2019-03-22T15:46:35.703Z,102532.60
2019-03-22T15:49:04.494Z,102530.27
2019-03-22T15:51:33.282Z,102527.67
2019-03-22T15:54:01.964Z,102518.19
2019-03-22T15:56:30.773Z,102519.69
2019-03-22T15:58:59.438Z,102524.98
2019-03-22T16:01:28.125Z,102526.31
2019-03-22T16:03:58.555Z,102516.22
2019-03-22T16:06:27.338Z,102516.33
2019-03-22T16:08:56.741Z,102518.41
2019-03-22T16:11:25.533Z,102521.75
2019-03-22T16:13:54.143Z,102524.91
2019-03-22T16:16:22.903Z,102517.80
2019-03-22T16:18:51.587Z,102521.25
2019-03-22T16:21:20.375Z,102520.57
2019-03-22T16:23:49.266Z,102512.34
2019-03-22T16:26:20.825Z,102506.72
2019-03-22T16:28:54.214Z,102512.31
2019-03-22T16:31:23.005Z,102523.10
2019-03-22T16:33:54.736Z,102510.75
2019-03-22T16:36:23.752Z,102503.36
2019-03-22T16:38:52.643Z,102505.14
2019-03-22T16:41:25.487Z,102501.38
2019-03-22T16:43:55.562Z,102503.05
2019-03-22T16:46:33.039Z,102508.00
2019-03-22T16:49:05.671Z,102506.41
2019-03-22T16:51:43.733Z,102504.53
2019-03-22T16:54:12.944Z,102498.61
2019-03-22T16:56:42.119Z,102499.81
2019-03-22T16:59:16.618Z,102495.17
2019-03-22T17:01:49.526Z,102496.45
2019-03-22T17:04:18.214Z,102490.06
2019-03-22T17:06:46.997Z,102485.56
2019-03-22T17:09:15.684Z,102493.55
2019-03-22T17:11:44.470Z,102482.93
2019-03-22T17:14:13.155Z,102474.75
2019-03-22T17:16:41.806Z,102472.75
2019-03-22T17:19:10.868Z,102475.48
2019-03-22T17:21:40.647Z,102477.90
2019-03-22T17:24:09.333Z,102479.59
2019-03-22T17:26:38.019Z,102478.73
2019-03-22T17:29:06.806Z,102477.27
2019-03-22T17:31:35.389Z,102480.43
2019-03-22T17:34:13.813Z,102476.32
2019-03-22T17:36:34.399Z,102482.37
2019-03-22T17:39:04.932Z,102479.19
2019-03-22T17:41:33.718Z,102477.50
2019-03-22T17:44:02.507Z,102476.97
2019-03-22T17:46:31.193Z,102481.00
2019-03-22T17:48:59.827Z,102474.95
2019-03-22T17:51:30.190Z,102476.55
2019-03-22T17:53:58.887Z,102476.98
2019-03-22T17:56:27.547Z,102478.01
2019-03-22T17:58:56.259Z,102476.87
2019-03-22T18:01:24.944Z,102471.63
2019-03-22T18:03:53.736Z,102469.27
2019-03-22T18:06:22.315Z,102463.91
2019-03-22T18:08:51.104Z,102460.98
2019-03-22T18:11:19.789Z,102457.27
2019-03-22T18:13:48.583Z,102460.83
2019-03-22T18:16:17.263Z,102450.00
2019-03-22T18:18:45.948Z,102448.98
2019-03-22T18:21:14.740Z,102464.40
2019-03-22T18:23:43.526Z,102462.96
2019-03-22T18:26:12.212Z,102463.48
2019-03-22T18:28:41.000Z,102453.75
2019-03-22T18:31:10.607Z,102457.06
2019-03-22T18:33:39.294Z,102457.91
2019-03-22T18:36:08.025Z,102453.45
2019-03-22T18:38:37.144Z,102452.01
2019-03-22T18:41:05.867Z,102450.30
2019-03-22T18:43:34.565Z,102445.01
2019-03-22T18:46:03.385Z,102445.31
2019-03-22T18:48:32.235Z,102443.83
2019-03-22T18:51:00.894Z,102440.25
2019-03-22T18:53:29.812Z,102444.48
2019-03-22T18:55:58.498Z,102444.36
2019-03-22T18:58:27.190Z,102444.11
2019-03-22T19:00:55.877Z,102441.00
2019-03-22T19:03:24.550Z,102436.91
2019-03-22T19:05:53.546Z,102438.29
2019-03-22T19:08:22.331Z,102438.93
2019-03-22T19:10:51.120Z,102435.97
2019-03-22T19:13:19.908Z,102430.69
2019-03-22T19:15:48.695Z,102434.17
2019-03-22T19:18:17.483Z,102431.09
2019-03-22T19:20:46.281Z,102436.56
2019-03-22T19:23:16.901Z,102433.11
2019-03-22T19:25:45.486Z,102432.23
2019-03-22T19:28:14.171Z,102424.91
2019-03-22T19:30:42.961Z,102426.28
2019-03-22T19:33:11.748Z,102426.46
2019-03-22T19:35:40.437Z,102419.86
2019-03-22T19:38:09.222Z,102420.31
2019-03-22T19:40:38.008Z,102424.30
2019-03-22T19:43:06.745Z,102417.95
2019-03-22T19:45:35.489Z,102420.27
2019-03-22T19:48:04.271Z,102419.42
2019-03-22T19:50:33.058Z,102409.02
2019-03-22T19:53:01.744Z,102408.80
2019-03-22T19:55:30.533Z,102408.38
2019-03-22T19:57:59.221Z,102408.63
2019-03-22T20:00:27.905Z,102401.27
2019-03-22T20:02:56.590Z,102404.83
2019-03-22T20:05:32.752Z,102402.17
2019-03-22T20:08:02.061Z,102404.07
2019-03-22T20:10:31.247Z,102404.48
2019-03-22T20:13:00.243Z,102398.94
2019-03-22T20:15:28.933Z,102395.98
2019-03-22T20:17:57.615Z,102398.81
2019-03-22T20:20:26.405Z,102397.44
2019-03-22T20:22:55.084Z,102400.36
2019-03-22T20:25:23.773Z,102393.75
2019-03-22T20:27:52.560Z,102387.70
2019-03-22T20:30:21.555Z,102381.15
2019-03-22T20:32:50.342Z,102382.52
2019-03-22T20:35:19.034Z,102382.22
2019-03-22T20:37:50.687Z,102385.25
2019-03-22T20:40:20.068Z,102384.47
2019-03-22T20:42:48.771Z,102383.17
2019-03-22T20:45:23.952Z,102379.53
2019-03-22T20:47:47.985Z,102378.03
2019-03-22T20:50:16.875Z,102374.12
2019-03-22T20:52:45.561Z,102382.44
2019-03-22T20:55:14.720Z,102381.25
2019-03-22T20:57:43.444Z,102388.35
2019-03-22T21:00:14.335Z,102386.59
2019-03-22T21:02:43.073Z,102395.09
2019-03-22T21:05:11.959Z,102384.91
2019-03-22T21:07:40.648Z,102385.34
2019-03-22T21:10:10.601Z,102382.36
2019-03-22T21:12:39.246Z,102385.35
2019-03-22T21:15:11.210Z,102383.86
2019-03-22T21:17:39.898Z,102384.30
2019-03-22T21:20:10.420Z,102389.63
2019-03-22T21:22:39.109Z,102386.95
2019-03-22T21:25:09.019Z,102371.88
2019-03-22T21:27:37.709Z,102366.50
2019-03-22T21:30:11.618Z,102371.88
2019-03-22T21:32:45.289Z,102367.78
2019-03-22T21:35:21.625Z,102359.58
2019-03-22T21:37:41.057Z,102357.99
2019-03-22T21:40:11.275Z,102348.13
2019-03-22T21:42:40.065Z,102350.67
2019-03-22T21:45:09.868Z,102346.94
2019-03-22T21:47:38.507Z,102346.55
2019-03-22T21:50:08.582Z,102347.86
2019-03-22T21:52:37.265Z,102346.05
2019-03-22T21:55:07.896Z,102336.50
2019-03-22T21:57:36.581Z,102331.29
2019-03-22T22:00:10.616Z,102328.70
2019-03-22T22:02:39.873Z,102332.13
2019-03-22T22:05:09.602Z,102328.05
2019-03-22T22:07:38.286Z,102323.66
2019-03-22T22:10:11.068Z,102320.34
2019-03-22T22:12:39.857Z,102318.60
2019-03-22T22:15:11.106Z,102309.38
2019-03-22T22:17:41.432Z,102308.06
2019-03-22T22:20:10.639Z,102309.42
2019-03-22T22:22:39.310Z,102313.74
2019-03-22T22:25:08.534Z,102312.16
2019-03-22T22:27:37.222Z,102304.22
2019-03-22T22:30:11.125Z,102296.86
2019-03-22T22:32:39.890Z,102298.86
2019-03-22T22:35:09.606Z,102297.84
2019-03-22T22:37:38.698Z,102291.56
2019-03-22T22:40:09.849Z,102285.36
2019-03-22T22:42:39.651Z,102281.28
2019-03-22T22:45:10.900Z,102271.42
2019-03-22T22:47:39.750Z,102265.16
2019-03-22T22:50:12.663Z,102265.50
2019-03-22T22:52:41.359Z,102266.72
2019-03-22T22:55:10.619Z,102256.21
2019-03-22T22:57:40.802Z,102250.00
2019-03-22T23:00:14.489Z,102240.52
2019-03-22T23:02:43.885Z,102233.62
2019-03-22T23:05:12.980Z,102233.17
2019-03-22T23:07:41.974Z,102236.03
2019-03-22T23:10:12.734Z,102226.75
2019-03-22T23:12:42.525Z,102224.38
2019-03-22T23:15:11.511Z,102226.69
2019-03-22T23:17:40.301Z,102219.01
2019-03-22T23:20:10.303Z,102217.12
2019-03-22T23:22:39.001Z,102213.03
2019-03-22T23:25:07.893Z,102205.84
2019-03-22T23:27:37.274Z,102206.69
2019-03-22T23:30:08.439Z,102204.93
2019-03-22T23:32:37.236Z,102206.16
2019-03-22T23:35:07.040Z,102196.78
2019-03-22T23:37:35.828Z,102192.55
2019-03-22T23:40:06.253Z,102185.56
2019-03-22T23:42:35.145Z,102191.41
2019-03-22T23:45:07.720Z,102181.64
2019-03-22T23:47:36.510Z,102186.45
2019-03-22T23:50:07.657Z,102185.18
2019-03-22T23:52:36.445Z,102184.11
2019-03-22T23:55:08.302Z,102179.27
2019-03-22T23:57:36.987Z,102175.77
